Time;durP1;ratioP1;P1;durP2;ratioP2;P2;SDS_P1;SDS_P2;PMS_P1;PMS_P2;Temp;Humidity;BMP_temperature;BMP_pressure;BME280_temperature;BME280_humidity;BME280_pressure;Samples;Min_cycle;Max_cycle;Signal;HPM_P1;HPM_P2
2024/01/23 00:00:14;;;;;;;13.07;3.08;;;6.80;99.90;;;;;;4879582;28;21510;-50
2024/01/23 00:02:40;;;;;;;9.93;2.17;;;6.80;99.90;;;;;;4908532;28;20046;-50
2024/01/23 00:05:05;;;;;;;9.95;2.42;;;6.90;99.90;;;;;;4861223;28;20042;-54
2024/01/23 00:07:31;;;;;;;7.63;2.20;;;6.90;99.90;;;;;;4861556;28;20084;-53
2024/01/23 00:09:57;;;;;;;8.00;2.17;;;6.90;99.90;;;;;;4923746;28;20708;-55
2024/01/23 00:12:22;;;;;;;6.65;1.67;;;6.90;99.90;;;;;;4858239;28;20634;-52
2024/01/23 00:14:48;;;;;;;6.70;2.03;;;7.00;99.90;;;;;;4908318;28;20468;-60
2024/01/23 00:17:14;;;;;;;7.20;2.45;;;7.00;99.90;;;;;;4923200;28;20022;-53
2024/01/23 00:19:40;;;;;;;4.90;2.17;;;6.90;99.90;;;;;;4904891;28;20084;-50
2024/01/23 00:22:06;;;;;;;11.13;2.33;;;7.00;99.90;;;;;;4916973;28;20038;-54
2024/01/23 00:24:31;;;;;;;13.93;2.25;;;7.00;99.90;;;;;;4909511;28;20044;-50
2024/01/23 00:26:57;;;;;;;10.13;2.17;;;7.00;99.90;;;;;;4898807;22;20077;-86
2024/01/23 00:29:22;;;;;;;8.77;1.95;;;6.90;99.90;;;;;;4941607;28;20056;-84
2024/01/23 00:31:48;;;;;;;18.05;3.10;;;6.90;99.90;;;;;;4926555;28;20134;-85
2024/01/23 00:34:14;;;;;;;6.63;2.45;;;6.90;99.90;;;;;;4912086;28;20027;-86
2024/01/23 00:36:41;;;;;;;14.05;3.58;;;6.90;99.90;;;;;;4914382;28;20735;-85
2024/01/23 00:39:06;;;;;;;9.57;2.25;;;6.90;99.90;;;;;;4898411;28;21255;-85
2024/01/23 00:41:34;;;;;;;18.90;2.70;;;6.90;99.90;;;;;;4952516;28;21386;-86
2024/01/23 00:44:00;;;;;;;10.05;2.15;;;6.90;99.90;;;;;;4906825;28;20086;-85
2024/01/23 00:46:26;;;;;;;11.70;2.25;;;6.90;99.90;;;;;;4894121;28;20435;-85
2024/01/23 00:48:52;;;;;;;9.82;1.73;;;6.90;99.90;;;;;;4921059;28;20525;-84
2024/01/23 00:51:17;;;;;;;6.20;1.17;;;6.90;99.90;;;;;;4905766;28;20181;-84
2024/01/23 00:53:43;;;;;;;3.47;1.00;;;6.80;99.90;;;;;;4940824;28;20270;-84
2024/01/23 00:56:08;;;;;;;3.88;1.42;;;6.30;99.90;;;;;;4910924;28;20086;-85
2024/01/23 00:58:34;;;;;;;6.95;1.20;;;6.00;99.90;;;;;;4900561;28;21563;-86
2024/01/23 01:01:00;;;;;;;6.88;1.05;;;5.80;99.90;;;;;;4888273;28;20022;-85
2024/01/23 01:03:25;;;;;;;5.05;0.85;;;5.70;99.90;;;;;;4901418;28;20461;-86
2024/01/23 01:05:51;;;;;;;5.70;1.08;;;5.60;99.90;;;;;;4905632;28;20027;-86
2024/01/23 01:08:16;;;;;;;2.88;0.73;;;5.50;99.90;;;;;;4948331;28;20065;-85
2024/01/23 01:10:42;;;;;;;3.70;0.90;;;5.40;99.90;;;;;;4925131;28;20023;-85
2024/01/23 01:13:09;;;;;;;6.65;0.93;;;5.40;99.90;;;;;;4900500;28;20022;-85
2024/01/23 01:15:34;;;;;;;5.72;1.42;;;5.30;99.90;;;;;;4940543;28;20034;-87
2024/01/23 01:18:00;;;;;;;4.22;1.27;;;5.20;99.90;;;;;;4947835;28;20137;-87
2024/01/23 01:20:26;;;;;;;7.88;1.48;;;5.20;99.90;;;;;;4940317;28;20390;-87
2024/01/23 01:22:51;;;;;;;6.40;0.93;;;5.10;99.90;;;;;;4975550;28;20035;-87
2024/01/23 01:25:18;;;;;;;5.60;1.67;;;5.10;99.90;;;;;;4942426;28;20027;-86
2024/01/23 01:27:44;;;;;;;7.45;1.58;;;5.00;99.90;;;;;;4940254;28;20035;-86
2024/01/23 01:30:10;;;;;;;7.70;1.65;;;5.00;99.90;;;;;;4935774;28;20026;-86
2024/01/23 01:32:36;;;;;;;4.72;1.52;;;4.90;99.90;;;;;;4937811;28;21602;-87
2024/01/23 01:35:02;;;;;;;7.13;1.48;;;4.90;99.90;;;;;;4964360;28;20099;-86
2024/01/23 01:37:28;;;;;;;9.65;1.63;;;4.90;99.90;;;;;;4926444;28;20173;-85
2024/01/23 01:39:56;;;;;;;3.97;1.83;;;4.90;99.90;;;;;;4919154;28;20332;-85
2024/01/23 01:42:21;;;;;;;4.35;1.70;;;5.00;99.90;;;;;;4935958;28;20023;-85
2024/01/23 01:44:47;;;;;;;9.25;2.20;;;4.90;99.90;;;;;;4915551;28;20038;-85
2024/01/23 01:47:13;;;;;;;9.93;2.03;;;4.90;99.90;;;;;;4942323;28;20026;-84
2024/01/23 01:49:38;;;;;;;8.85;2.10;;;5.00;99.90;;;;;;4916369;28;20034;-85
2024/01/23 01:52:04;;;;;;;8.25;2.40;;;5.00;99.90;;;;;;4907165;28;21642;-85
2024/01/23 01:54:31;;;;;;;7.65;2.30;;;5.00;99.90;;;;;;4936059;28;20030;-85
2024/01/23 01:56:59;;;;;;;10.27;1.98;;;5.10;99.90;;;;;;4909192;28;20029;-86
2024/01/23 01:59:25;;;;;;;6.10;2.22;;;5.10;99.90;;;;;;4914219;28;20475;-85
2024/01/23 02:01:51;;;;;;;10.05;1.95;;;5.10;99.90;;;;;;4948857;28;20042;-85
2024/01/23 02:04:16;;;;;;;13.95;2.22;;;5.20;99.90;;;;;;4907350;28;20143;-85
2024/01/23 02:06:42;;;;;;;7.22;2.42;;;5.20;99.90;;;;;;4934663;28;20030;-85
2024/01/23 02:09:08;;;;;;;12.40;2.83;;;5.30;99.90;;;;;;4905713;28;20042;-86
2024/01/23 02:11:34;;;;;;;12.93;2.90;;;5.30;99.90;;;;;;4903056;28;21730;-85
2024/01/23 02:14:00;;;;;;;9.80;2.13;;;5.40;99.90;;;;;;4933492;28;20206;-85
2024/01/23 02:16:25;;;;;;;9.00;2.70;;;5.50;99.90;;;;;;4893570;28;20038;-85
2024/01/23 02:18:51;;;;;;;8.48;2.75;;;5.40;99.90;;;;;;4921418;28;20503;-84
2024/01/23 02:21:17;;;;;;;14.07;2.88;;;5.50;99.90;;;;;;4923631;28;20031;-85
2024/01/23 02:23:43;;;;;;;12.20;2.50;;;5.60;99.90;;;;;;4875785;28;20483;-86
2024/01/23 02:26:13;;;;;;;8.00;2.08;;;5.60;99.90;;;;;;4920910;28;20054;-84
2024/01/23 02:28:39;;;;;;;11.20;2.13;;;5.60;99.90;;;;;;4899455;28;20042;-85
2024/01/23 02:31:05;;;;;;;10.60;2.20;;;5.60;99.90;;;;;;4910871;28;21878;-86
2024/01/23 02:33:30;;;;;;;15.20;2.22;;;5.60;99.90;;;;;;4927349;28;20096;-85
2024/01/23 02:35:56;;;;;;;6.07;1.90;;;5.60;99.90;;;;;;4881791;28;20082;-85
2024/01/23 02:38:21;;;;;;;13.38;2.28;;;5.60;99.90;;;;;;4903059;28;20034;-85
2024/01/23 02:40:49;;;;;;;9.23;2.13;;;5.60;99.90;;;;;;4929135;28;20031;-85
2024/01/23 02:43:15;;;;;;;8.95;1.90;;;5.50;99.90;;;;;;4884731;28;20495;-86
2024/01/23 02:45:40;;;;;;;6.68;1.52;;;5.50;99.90;;;;;;4907206;28;20111;-85
2024/01/23 02:48:06;;;;;;;6.32;2.17;;;5.50;99.90;;;;;;4895691;28;20033;-86
2024/01/23 02:50:32;;;;;;;5.80;1.52;;;5.50;99.90;;;;;;4883682;28;21254;-86
2024/01/23 02:52:57;;;;;;;12.25;2.72;;;5.50;99.90;;;;;;4956229;28;20019;-85
2024/01/23 02:55:23;;;;;;;3.67;1.63;;;5.50;99.90;;;;;;4912318;28;20023;-86
2024/01/23 02:57:48;;;;;;;9.30;1.88;;;5.50;99.90;;;;;;4903624;28;20027;-86
2024/01/23 03:00:14;;;;;;;13.05;2.42;;;5.50;99.90;;;;;;4916589;28;20027;-86
2024/01/23 03:02:40;;;;;;;7.80;2.13;;;5.50;99.90;;;;;;4876781;28;21637;-87
2024/01/23 03:05:06;;;;;;;11.60;2.42;;;5.50;99.90;;;;;;4928916;28;20045;-86
2024/01/23 03:07:31;;;;;;;4.13;1.10;;;5.50;99.90;;;;;;4879287;28;20019;-85
2024/01/23 03:10:00;;;;;;;9.60;1.98;;;5.50;99.90;;;;;;4881341;28;20026;-85
2024/01/23 03:12:26;;;;;;;10.88;1.95;;;5.50;99.90;;;;;;4915797;28;20439;-85
2024/01/23 03:14:52;;;;;;;12.77;2.95;;;5.50;99.90;;;;;;4863487;28;20518;-85
2024/01/23 03:17:18;;;;;;;8.48;2.20;;;5.50;99.90;;;;;;4902526;28;20026;-84
2024/01/23 03:19:44;;;;;;;10.02;2.47;;;5.40;99.90;;;;;;4929840;28;20035;-86
2024/01/23 03:22:10;;;;;;;6.75;2.17;;;5.50;99.90;;;;;;4890666;28;21155;-86
2024/01/23 03:24:39;;;;;;;8.55;2.13;;;5.50;99.90;;;;;;4928665;28;20035;-85
2024/01/23 03:27:06;;;;;;;10.60;2.20;;;5.50;99.90;;;;;;4885421;28;20050;-86
2024/01/23 03:29:45;;;;;;;8.55;1.67;;;5.50;99.90;;;;;;4868590;28;21510;-86
2024/01/23 03:32:11;;;;;;;12.25;2.53;;;5.50;99.90;;;;;;4916737;28;20034;-86
2024/01/23 03:34:38;;;;;;;7.65;2.58;;;5.50;99.90;;;;;;4853890;28;20042;-86
2024/01/23 03:37:04;;;;;;;7.68;1.92;;;5.50;99.90;;;;;;4872985;28;20066;-85
2024/01/23 03:39:30;;;;;;;13.90;3.35;;;5.50;99.90;;;;;;4917838;28;20027;-86
2024/01/23 03:41:57;;;;;;;7.95;1.60;;;5.50;99.90;;;;;;4893335;28;20035;-85
2024/01/23 03:44:26;;;;;;;13.35;2.90;;;5.50;99.90;;;;;;4886929;28;20031;-85
2024/01/23 03:46:55;;;;;;;11.50;2.22;;;5.60;99.90;;;;;;4934975;28;20479;-86
2024/01/23 03:49:22;;;;;;;10.20;2.75;;;5.60;99.90;;;;;;4886571;28;20019;-86
2024/01/23 03:51:49;;;;;;;10.75;2.58;;;5.60;99.90;;;;;;4914520;28;20070;-85
2024/01/23 03:54:15;;;;;;;10.38;2.65;;;5.60;99.90;;;;;;4900723;28;20043;-87
2024/01/23 03:56:41;;;;;;;13.25;3.17;;;5.60;99.90;;;;;;4885951;28;21690;-86
2024/01/23 03:59:07;;;;;;;9.60;2.72;;;5.60;99.90;;;;;;4931741;28;20088;-85
2024/01/23 04:01:32;;;;;;;9.05;2.63;;;5.60;99.90;;;;;;4889997;28;20034;-85
2024/01/23 04:03:58;;;;;;;10.70;2.47;;;5.70;99.90;;;;;;4884691;28;20373;-85
2024/01/23 04:06:23;;;;;;;8.35;2.45;;;5.60;99.90;;;;;;4922007;28;20027;-85
2024/01/23 04:08:49;;;;;;;12.10;2.65;;;5.70;99.90;;;;;;4851788;28;20034;-86
2024/01/23 04:11:15;;;;;;;9.32;2.75;;;5.60;99.90;;;;;;4904066;28;20027;-84
2024/01/23 04:13:40;;;;;;;13.02;3.08;;;5.60;99.90;;;;;;4892569;28;20031;-85
2024/01/23 04:16:06;;;;;;;10.93;3.30;;;5.60;99.90;;;;;;4875936;28;21184;-85
2024/01/23 04:18:32;;;;;;;14.18;2.88;;;5.60;99.90;;;;;;4926194;28;20041;-85
2024/01/23 04:20:58;;;;;;;10.60;2.38;;;5.60;99.90;;;;;;4874968;28;20053;-87
2024/01/23 04:23:23;;;;;;;14.15;2.63;;;5.60;99.90;;;;;;4873785;28;20238;-87
2024/01/23 04:25:49;;;;;;;11.38;2.72;;;5.60;99.90;;;;;;4915531;28;20026;-86
2024/01/23 04:28:15;;;;;;;15.23;3.13;;;5.60;99.90;;;;;;4873532;28;20043;-83
2024/01/23 04:30:40;;;;;;;20.48;3.42;;;5.70;99.90;;;;;;4917999;28;20787;-85
2024/01/23 04:33:06;;;;;;;7.88;2.75;;;5.70;99.90;;;;;;4890839;28;20059;-85
2024/01/23 04:35:32;;;;;;;12.90;2.78;;;5.70;99.90;;;;;;4886131;28;21371;-84
2024/01/23 04:37:58;;;;;;;7.43;3.25;;;5.70;99.90;;;;;;4909254;28;20089;-86
2024/01/23 04:40:24;;;;;;;10.55;2.58;;;5.70;99.90;;;;;;4877444;28;20105;-84
2024/01/23 04:42:50;;;;;;;11.10;3.17;;;5.70;99.90;;;;;;4889387;28;20142;-86
2024/01/23 04:45:15;;;;;;;11.95;2.78;;;5.70;99.90;;;;;;4894193;28;20054;-87
2024/01/23 04:47:41;;;;;;;15.45;3.38;;;5.70;99.90;;;;;;4874634;28;20638;-87
2024/01/23 04:50:08;;;;;;;12.68;2.90;;;5.80;99.90;;;;;;4920736;28;20419;-84
2024/01/23 04:52:33;;;;;;;8.80;2.05;;;5.80;99.90;;;;;;4872242;28;20515;-86
2024/01/23 04:54:59;;;;;;;14.43;2.08;;;5.80;99.90;;;;;;4872503;28;20110;-86
2024/01/23 04:57:31;;;;;;;13.32;2.80;;;5.80;99.90;;;;;;4913194;28;20038;-86
2024/01/23 04:59:57;;;;;;;15.05;2.85;;;5.80;99.90;;;;;;4862812;28;20125;-85
2024/01/23 05:02:23;;;;;;;12.48;2.70;;;5.90;99.90;;;;;;4869895;28;20055;-86
2024/01/23 05:04:48;;;;;;;12.00;3.42;;;5.90;99.90;;;;;;4913597;28;20574;-85
2024/01/23 05:07:14;;;;;;;8.73;2.83;;;5.90;99.90;;;;;;4869384;28;21063;-86
2024/01/23 05:09:39;;;;;;;19.40;3.50;;;5.80;99.90;;;;;;4915082;28;20023;-84
2024/01/23 05:12:05;;;;;;;11.38;3.40;;;5.90;99.90;;;;;;4878643;28;20062;-84
2024/01/23 05:14:31;;;;;;;8.82;2.95;;;5.90;99.90;;;;;;4879404;28;20031;-84
2024/01/23 05:16:56;;;;;;;10.27;2.28;;;5.90;99.90;;;;;;4920534;28;20064;-85
2024/01/23 05:19:22;;;;;;;12.55;3.65;;;5.90;99.90;;;;;;4875286;28;20046;-89
2024/01/23 05:21:48;;;;;;;10.32;2.65;;;5.90;99.90;;;;;;4912568;28;20065;-87
2024/01/23 05:24:14;;;;;;;15.20;2.78;;;5.90;99.90;;;;;;4869794;28;20037;-86
2024/01/23 05:26:39;;;;;;;9.75;3.28;;;5.80;99.90;;;;;;4868503;28;21337;-85
2024/01/23 05:29:05;;;;;;;10.23;2.88;;;5.70;99.90;;;;;;4922999;28;20096;-86
2024/01/23 05:31:30;;;;;;;18.90;3.03;;;5.70;99.90;;;;;;4871414;28;20026;-85
2024/01/23 05:33:56;;;;;;;14.55;3.05;;;5.70;99.90;;;;;;4870454;28;20038;-87
2024/01/23 05:36:22;;;;;;;8.30;2.90;;;5.70;99.90;;;;;;4909741;28;20422;-86
2024/01/23 05:38:48;;;;;;;11.95;3.25;;;5.70;99.90;;;;;;4881253;28;20105;-87
2024/01/23 05:41:13;;;;;;;12.18;3.70;;;5.60;99.90;;;;;;4909845;28;20375;-84
2024/01/23 05:43:39;;;;;;;13.93;2.80;;;5.60;99.90;;;;;;4869979;28;20085;-85
2024/01/23 05:46:05;;;;;;;15.35;3.20;;;5.60;99.90;;;;;;4881166;28;21329;-85
2024/01/23 05:48:30;;;;;;;8.70;2.85;;;5.60;99.90;;;;;;4917035;28;20085;-85
2024/01/23 05:50:56;;;;;;;8.90;2.30;;;5.60;99.90;;;;;;4862916;28;20035;-84
2024/01/23 05:53:22;;;;;;;13.23;3.67;;;5.50;99.90;;;;;;4870096;28;20046;-86
2024/01/23 05:55:47;;;;;;;20.27;3.33;;;5.60;99.90;;;;;;4904200;28;20590;-85
2024/01/23 05:58:13;;;;;;;12.73;3.80;;;5.60;99.90;;;;;;4860724;28;21489;-85
2024/01/23 06:00:39;;;;;;;14.90;3.88;;;5.60;99.90;;;;;;4922212;28;20057;-86
2024/01/23 06:03:05;;;;;;;17.98;3.95;;;5.60;99.90;;;;;;4862211;28;20042;-85
2024/01/23 06:05:30;;;;;;;17.50;4.35;;;5.60;99.90;;;;;;4857157;28;20104;-84
2024/01/23 06:07:56;;;;;;;22.52;3.42;;;5.60;99.90;;;;;;4929896;28;20548;-84
2024/01/23 06:10:22;;;;;;;24.67;4.70;;;5.60;99.90;;;;;;4887125;28;20022;-85
2024/01/23 06:12:52;;;;;;;14.52;3.78;;;5.60;99.90;;;;;;4913095;28;20082;-86
2024/01/23 06:15:18;;;;;;;17.38;4.22;;;5.60;99.90;;;;;;4904340;28;20030;-87
2024/01/23 06:17:44;;;;;;;18.65;3.78;;;5.60;99.90;;;;;;4881421;28;20086;-86
2024/01/23 06:20:12;;;;;;;23.45;4.00;;;5.60;99.90;;;;;;4933214;28;20030;-87
2024/01/23 06:22:38;;;;;;;23.25;4.30;;;5.60;99.90;;;;;;4883768;28;20474;-85
2024/01/23 06:25:15;;;;;;;10.68;3.78;;;5.60;99.90;;;;;;4879246;28;20033;-86
2024/01/23 06:27:44;;;;;;;24.02;4.75;;;5.60;99.90;;;;;;4920053;28;20078;-86
2024/01/23 06:30:11;;;;;;;18.83;3.70;;;5.70;99.90;;;;;;4922168;28;20258;-86
2024/01/23 06:32:46;;;;;;;16.55;3.20;;;5.70;99.90;;;;;;4932245;28;20487;-86
2024/01/23 06:35:11;;;;;;;24.02;4.15;;;5.70;99.90;;;;;;4951744;28;20031;-88
2024/01/23 06:37:37;;;;;;;11.88;3.40;;;5.70;99.90;;;;;;4939145;28;20041;-86
2024/01/23 06:40:04;;;;;;;19.50;3.45;;;5.80;99.90;;;;;;4945843;28;20031;-86
2024/01/23 06:42:30;;;;;;;14.27;3.67;;;5.80;99.90;;;;;;4943948;28;20026;-86
2024/01/23 06:44:55;;;;;;;21.48;4.35;;;5.80;99.90;;;;;;4957616;28;20141;-86
2024/01/23 06:47:23;;;;;;;18.95;3.95;;;5.90;99.90;;;;;;4938558;28;20023;-86
2024/01/23 06:49:49;;;;;;;19.75;3.90;;;5.90;99.90;;;;;;4950863;28;20022;-86
2024/01/23 06:52:14;;;;;;;20.67;4.30;;;5.90;99.90;;;;;;4953007;28;21390;-87
2024/01/23 06:54:41;;;;;;;20.65;4.90;;;6.00;99.90;;;;;;4956002;28;20050;-87
2024/01/23 06:57:06;;;;;;;18.88;4.25;;;6.00;99.90;;;;;;4945860;28;20569;-84
2024/01/23 06:59:34;;;;;;;17.92;4.05;;;6.00;99.90;;;;;;4899333;28;20046;-86
2024/01/23 07:02:00;;;;;;;14.85;4.15;;;6.10;99.90;;;;;;4968113;28;20031;-85
2024/01/23 07:04:25;;;;;;;15.15;4.40;;;6.10;99.90;;;;;;4945964;28;20316;-87
2024/01/23 07:06:51;;;;;;;17.83;4.80;;;6.10;99.90;;;;;;4941571;28;20035;-84
2024/01/23 07:09:17;;;;;;;20.23;4.32;;;6.20;99.90;;;;;;4953679;28;20425;-84
2024/01/23 07:11:43;;;;;;;24.55;5.53;;;6.10;99.90;;;;;;4942609;28;20023;-87
2024/01/23 07:14:09;;;;;;;20.90;4.50;;;6.20;99.90;;;;;;4950504;28;20027;-88
2024/01/23 07:16:35;;;;;;;15.90;4.05;;;6.30;99.90;;;;;;4966202;28;20035;-88
2024/01/23 07:19:00;;;;;;;19.35;4.63;;;6.30;99.90;;;;;;4953208;28;20023;-87
2024/01/23 07:21:26;;;;;;;25.50;4.70;;;6.30;99.90;;;;;;4935797;28;20403;-86
2024/01/23 07:23:51;;;;;;;17.30;4.32;;;6.30;99.90;;;;;;4936906;28;20420;-86
2024/01/23 07:26:17;;;;;;;18.27;4.28;;;6.30;99.90;;;;;;4940409;28;20026;-86
2024/01/23 07:28:43;;;;;;;19.58;5.57;;;6.30;99.90;;;;;;4927553;28;20027;-85
2024/01/23 07:31:11;;;;;;;22.98;6.03;;;6.30;99.90;;;;;;4928556;28;20109;-88
2024/01/23 07:33:37;;;;;;;24.05;5.05;;;6.30;99.90;;;;;;4941793;28;21632;-86
2024/01/23 07:36:03;;;;;;;25.15;4.93;;;6.40;99.90;;;;;;4929378;28;20035;-86
2024/01/23 07:38:28;;;;;;;21.48;3.95;;;6.40;99.90;;;;;;4926799;28;20041;-87
2024/01/23 07:40:54;;;;;;;21.30;3.78;;;6.40;99.90;;;;;;4899611;28;20038;-85
2024/01/23 07:43:26;;;;;;;22.60;6.05;;;6.40;99.90;;;;;;4932044;28;20150;-86
2024/01/23 07:45:55;;;;;;;25.20;5.43;;;6.40;99.90;;;;;;4914899;28;20562;-84
2024/01/23 07:48:21;;;;;;;24.20;4.47;;;6.40;99.90;;;;;;4937324;28;20384;-85
2024/01/23 07:50:47;;;;;;;24.45;5.35;;;6.40;99.90;;;;;;4959784;28;20042;-86
2024/01/23 07:53:12;;;;;;;28.98;5.60;;;6.40;99.90;;;;;;4932261;28;20118;-85
2024/01/23 07:55:41;;;;;;;16.60;4.18;;;6.40;99.90;;;;;;4937935;28;20027;-85
2024/01/23 07:58:08;;;;;;;17.88;4.97;;;6.50;99.90;;;;;;4929696;28;21243;-86
2024/01/23 08:00:34;;;;;;;20.85;5.50;;;6.40;99.90;;;;;;4937234;28;20629;-87
2024/01/23 08:02:59;;;;;;;24.08;4.97;;;6.40;99.90;;;;;;4955757;28;20491;-86
2024/01/23 08:05:25;;;;;;;15.55;4.60;;;6.40;99.90;;;;;;4928381;28;20034;-86
2024/01/23 08:07:50;;;;;;;19.65;4.82;;;6.50;99.90;;;;;;4913817;28;20035;-87
2024/01/23 08:10:16;;;;;;;12.25;4.70;;;6.50;99.90;;;;;;4940245;28;20027;-86
2024/01/23 08:12:42;;;;;;;17.23;4.30;;;6.40;99.90;;;;;;4946119;28;20529;-85
2024/01/23 08:15:08;;;;;;;18.90;5.07;;;6.50;99.90;;;;;;4976875;28;20039;-85
2024/01/23 08:17:33;;;;;;;26.98;4.47;;;6.50;99.90;;;;;;4938564;28;20042;-87
2024/01/23 08:19:59;;;;;;;24.20;5.30;;;6.50;99.90;;;;;;4941809;28;20593;-86
2024/01/23 08:22:24;;;;;;;19.20;4.72;;;6.50;99.90;;;;;;4943704;28;20042;-86
2024/01/23 08:24:51;;;;;;;13.85;4.60;;;6.50;99.90;;;;;;4939897;28;20089;-87
2024/01/23 08:27:20;;;;;;;21.67;5.88;;;6.50;99.90;;;;;;4952138;28;20426;-85
2024/01/23 08:29:46;;;;;;;21.20;5.78;;;6.50;99.90;;;;;;4957341;28;20101;-87
2024/01/23 08:32:12;;;;;;;19.75;4.90;;;6.50;99.90;;;;;;4931112;28;20102;-85
2024/01/23 08:34:39;;;;;;;31.45;6.00;;;6.50;99.90;;;;;;4943822;28;20443;-84
2024/01/23 08:37:05;;;;;;;32.05;5.80;;;6.60;99.90;;;;;;4934361;28;20041;-85
2024/01/23 08:39:30;;;;;;;14.18;4.15;;;6.60;99.90;;;;;;4931909;28;20031;-85
2024/01/23 08:41:56;;;;;;;17.30;4.18;;;6.60;99.90;;;;;;4957202;28;20050;-85
2024/01/23 08:44:22;;;;;;;37.70;6.25;;;6.60;99.90;;;;;;4908361;28;20069;-87
2024/01/23 08:46:48;;;;;;;16.80;5.05;;;6.60;99.90;;;;;;4929855;28;20050;-84
2024/01/23 08:49:15;;;;;;;19.60;4.82;;;6.60;99.90;;;;;;4934632;28;20113;-86
2024/01/23 08:51:41;;;;;;;24.83;5.55;;;6.60;99.90;;;;;;4912065;28;21455;-86
2024/01/23 08:54:06;;;;;;;27.95;5.95;;;6.70;99.90;;;;;;4953741;28;20114;-86
2024/01/23 08:56:32;;;;;;;17.45;4.20;;;6.60;99.90;;;;;;4928394;28;20057;-86
2024/01/23 08:58:57;;;;;;;18.70;4.18;;;6.70;99.90;;;;;;4922624;28;20877;-86
2024/01/23 09:01:23;;;;;;;23.23;5.15;;;6.70;99.90;;;;;;4948717;28;20419;-87
2024/01/23 09:03:48;;;;;;;14.98;3.92;;;6.70;99.90;;;;;;4931570;28;20038;-85
2024/01/23 09:06:14;;;;;;;21.48;4.75;;;6.70;99.90;;;;;;4944767;28;20573;-85
2024/01/23 09:08:42;;;;;;;23.25;4.22;;;6.70;99.90;;;;;;4929655;28;20030;-85
2024/01/23 09:11:08;;;;;;;27.40;4.95;;;6.70;99.90;;;;;;4925897;28;21061;-87
2024/01/23 09:13:33;;;;;;;32.00;4.88;;;6.70;99.90;;;;;;4947407;28;20027;-85
2024/01/23 09:16:00;;;;;;;23.17;5.35;;;6.70;99.90;;;;;;4924178;28;20513;-86
2024/01/23 09:18:27;;;;;;;18.45;4.75;;;6.70;99.90;;;;;;4909526;28;20046;-85
2024/01/23 09:20:53;;;;;;;21.40;4.25;;;6.80;99.90;;;;;;4939257;28;20050;-87
2024/01/23 09:23:19;;;;;;;26.40;5.32;;;6.80;99.90;;;;;;4934412;28;20031;-86
2024/01/23 09:25:45;;;;;;;25.27;5.22;;;6.80;99.90;;;;;;4954349;28;20538;-86
2024/01/23 09:28:11;;;;;;;31.17;6.60;;;6.80;99.90;;;;;;4946807;28;20382;-86
2024/01/23 09:30:37;;;;;;;22.38;6.07;;;6.80;99.90;;;;;;4943525;28;20133;-87
2024/01/23 09:33:02;;;;;;;21.58;5.07;;;6.80;99.90;;;;;;4957416;28;20483;-86
2024/01/23 09:35:30;;;;;;;24.75;5.57;;;6.80;99.90;;;;;;4943443;28;20494;-86
2024/01/23 09:37:56;;;;;;;23.10;5.47;;;6.90;99.90;;;;;;4935732;28;20672;-87
2024/01/23 09:40:22;;;;;;;24.00;5.03;;;6.90;99.90;;;;;;4959028;28;20030;-86
2024/01/23 09:42:48;;;;;;;22.92;5.20;;;7.00;99.90;;;;;;4946204;28;20022;-84
2024/01/23 09:45:29;;;;;;;26.02;4.63;;;7.00;99.90;;;;;;4947148;28;20031;-83
2024/01/23 09:47:55;;;;;;;20.33;4.10;;;7.00;99.90;;;;;;4960746;28;20022;-85
2024/01/23 09:50:26;;;;;;;26.85;5.32;;;7.10;99.90;;;;;;4937796;28;20469;-85
2024/01/23 09:52:51;;;;;;;30.00;6.18;;;7.10;99.90;;;;;;4935400;28;20602;-86
2024/01/23 09:55:18;;;;;;;22.70;5.35;;;7.20;99.90;;;;;;4934530;28;20055;-84
2024/01/23 09:57:44;;;;;;;33.80;5.85;;;7.20;99.90;;;;;;4923390;28;20033;-87
2024/01/23 10:00:11;;;;;;;20.10;6.28;;;7.30;99.90;;;;;;4940840;28;20035;-86
2024/01/23 10:02:41;;;;;;;21.45;5.85;;;7.30;99.90;;;;;;4914640;28;20189;-86
2024/01/23 10:05:15;;;;;;;32.10;6.22;;;7.30;99.90;;;;;;4926693;28;21173;-87
2024/01/23 10:07:42;;;;;;;14.82;3.65;;;7.30;99.90;;;;;;4955570;28;20030;-87
2024/01/23 10:10:17;;;;;;;22.48;5.60;;;7.30;99.90;;;;;;4934343;28;20435;-86
2024/01/23 10:12:45;;;;;;;36.13;5.85;;;7.30;99.90;;;;;;4922040;28;20029;-85
2024/01/23 10:15:12;;;;;;;16.17;4.57;;;7.20;99.90;;;;;;4942825;28;20022;-86
2024/01/23 10:17:39;;;;;;;16.75;4.97;;;7.20;99.90;;;;;;4930793;28;20062;-87
2024/01/23 10:20:05;;;;;;;22.92;5.45;;;7.30;99.90;;;;;;4928048;28;20563;-85
2024/01/23 10:22:32;;;;;;;24.30;6.10;;;7.20;99.90;;;;;;4970592;22;20046;-50
2024/01/23 10:24:58;;;;;;;22.55;4.72;;;7.20;99.90;;;;;;4937911;28;20021;-53
2024/01/23 10:27:28;;;;;;;28.05;5.30;;;7.20;99.90;;;;;;4936110;28;20026;-53
2024/01/23 10:29:54;;;;;;;25.27;4.60;;;7.20;99.90;;;;;;4977790;28;20029;-51
2024/01/23 10:32:22;;;;;;;25.13;5.13;;;7.30;99.90;;;;;;4940686;28;20257;-55
2024/01/23 10:34:54;;;;;;;22.35;5.63;;;7.30;99.90;;;;;;4951493;28;20038;-60
2024/01/23 10:37:23;;;;;;;23.88;5.15;;;7.30;99.90;;;;;;4958842;28;21431;-54
2024/01/23 10:39:51;;;;;;;31.83;5.18;;;7.30;99.90;;;;;;4932787;28;20030;-48
2024/01/23 10:42:18;;;;;;;25.73;5.22;;;7.30;99.90;;;;;;4948856;28;20688;-59
2024/01/23 10:44:47;;;;;;;22.88;5.90;;;7.30;99.90;;;;;;4960174;28;20030;-51
2024/01/23 10:47:14;;;;;;;21.20;4.88;;;7.30;99.90;;;;;;4933646;28;20204;-56
2024/01/23 10:49:40;;;;;;;18.30;4.75;;;7.20;99.90;;;;;;4952675;28;20386;-51
2024/01/23 10:52:09;;;;;;;22.90;4.57;;;7.20;99.90;;;;;;4932862;28;20038;-55
2024/01/23 10:54:43;;;;;;;39.40;5.35;;;7.30;99.90;;;;;;4928387;28;21478;-55
2024/01/23 10:57:12;;;;;;;28.10;5.10;;;7.30;99.90;;;;;;4970967;28;20026;-55
2024/01/23 10:59:38;;;;;;;21.75;5.60;;;7.30;99.90;;;;;;4929405;28;20034;-50
2024/01/23 11:02:20;;;;;;;25.98;5.85;;;7.30;99.90;;;;;;4943401;28;20446;-52
2024/01/23 11:04:46;;;;;;;22.60;5.32;;;7.30;99.90;;;;;;4952607;28;20042;-54
2024/01/23 11:07:20;;;;;;;31.77;6.18;;;7.30;99.90;;;;;;4929102;28;20482;-51
2024/01/23 11:10:00;;;;;;;23.88;5.07;;;7.30;99.90;;;;;;4924204;28;20743;-53
2024/01/23 11:12:45;;;;;;;21.90;4.90;;;7.40;99.90;;;;;;4921604;28;20759;-50
2024/01/23 11:15:15;;;;;;;19.00;4.47;;;7.30;99.90;;;;;;4968184;28;20021;-48
2024/01/23 11:17:41;;;;;;;27.17;5.78;;;7.30;99.90;;;;;;4940252;28;20022;-49
2024/01/23 11:20:13;;;;;;;25.17;6.32;;;7.30;99.90;;;;;;4923653;28;20037;-50
2024/01/23 11:22:39;;;;;;;25.85;5.82;;;7.30;99.90;;;;;;4973833;28;20054;-51
2024/01/23 11:25:05;;;;;;;25.95;5.95;;;7.30;99.90;;;;;;4917139;28;20033;-51
2024/01/23 11:27:33;;;;;;;23.92;6.13;;;7.30;99.90;;;;;;4920787;28;20029;-52
2024/01/23 11:29:59;;;;;;;23.27;5.55;;;7.30;99.90;;;;;;4972676;28;20133;-50
2024/01/23 11:32:27;;;;;;;22.48;5.13;;;7.30;99.90;;;;;;4919978;28;20053;-49
2024/01/23 11:34:59;;;;;;;22.05;5.78;;;7.40;99.90;;;;;;4917338;28;20033;-57
2024/01/23 11:37:38;;;;;;;17.95;4.68;;;7.40;99.90;;;;;;4951451;28;20498;-49
2024/01/23 11:40:04;;;;;;;19.48;5.18;;;7.40;99.90;;;;;;4922219;28;20095;-50
2024/01/23 11:42:41;;;;;;;20.75;4.25;;;7.40;99.90;;;;;;4925326;28;20502;-52
2024/01/23 11:45:21;;;;;;;20.67;5.35;;;7.40;99.90;;;;;;4960202;28;20086;-48
2024/01/23 11:47:54;;;;;;;23.90;5.20;;;7.40;99.90;;;;;;4967520;28;20022;-51
2024/01/23 11:50:20;;;;;;;23.65;5.53;;;7.50;99.90;;;;;;4913846;28;20026;-52
2024/01/23 11:52:49;;;;;;;25.80;4.07;;;7.40;99.90;;;;;;4950294;28;20030;-50
2024/01/23 11:55:16;;;;;;;20.60;4.32;;;7.40;99.90;;;;;;4940969;28;20040;-49
2024/01/23 11:57:41;;;;;;;22.50;4.28;;;7.40;99.90;;;;;;4910816;28;21779;-50
2024/01/23 12:00:07;;;;;;;21.23;4.63;;;7.50;99.90;;;;;;4961867;28;20038;-49
2024/01/23 12:02:35;;;;;;;14.45;3.92;;;7.50;99.90;;;;;;4909610;28;20149;-53
2024/01/23 12:05:00;;;;;;;29.85;5.10;;;7.60;99.90;;;;;;4906056;28;20084;-52
2024/01/23 12:07:26;;;;;;;18.35;4.70;;;7.60;99.90;;;;;;4951315;28;20694;-47
2024/01/23 12:09:52;;;;;;;22.52;4.45;;;7.60;99.90;;;;;;4905469;28;20045;-49
2024/01/23 12:12:18;;;;;;;28.25;5.18;;;7.60;99.90;;;;;;4950404;28;20030;-56
2024/01/23 12:14:45;;;;;;;26.98;5.47;;;7.60;99.90;;;;;;4926688;28;20030;-52
2024/01/23 12:17:11;;;;;;;14.60;4.88;;;7.60;99.90;;;;;;4911312;28;21720;-53
2024/01/23 12:19:48;;;;;;;28.17;3.85;;;7.60;99.90;;;;;;4916711;28;22928;-49
2024/01/23 12:22:15;;;;;;;23.38;4.90;;;7.50;99.90;;;;;;4956836;28;20065;-52
2024/01/23 12:24:42;;;;;;;20.58;3.88;;;7.50;99.90;;;;;;4909912;28;22658;-53
2024/01/23 12:27:11;;;;;;;18.88;4.38;;;7.50;99.90;;;;;;4955100;28;20034;-49
2024/01/23 12:29:41;;;;;;;22.00;5.60;;;7.50;99.90;;;;;;4898376;28;20093;-57
2024/01/23 12:32:09;;;;;;;18.00;3.83;;;7.50;99.90;;;;;;4902342;28;20052;-51
2024/01/23 12:34:35;;;;;;;24.73;5.60;;;7.50;99.90;;;;;;4942625;28;20096;-49
2024/01/23 12:37:01;;;;;;;16.55;5.10;;;7.50;99.90;;;;;;4928893;28;20034;-51
2024/01/23 12:39:30;;;;;;;25.13;5.05;;;7.50;99.90;;;;;;4900949;28;20040;-57
2024/01/23 12:41:57;;;;;;;14.18;3.95;;;7.50;99.90;;;;;;4957365;28;20096;-52
2024/01/23 12:44:23;;;;;;;24.77;4.70;;;7.50;99.90;;;;;;4909940;28;20041;-52
2024/01/23 12:46:50;;;;;;;24.92;4.18;;;7.50;99.90;;;;;;4934162;28;20411;-57